createdAt,value
2019-06-01T00:04:22.315Z,8.35
2019-06-01T00:09:29.624Z,9.07
2019-06-01T00:14:36.994Z,9.80
2019-06-01T00:19:44.175Z,8.70
2019-06-01T00:24:52.307Z,9.90
2019-06-01T00:30:00.509Z,9.73
2019-06-01T00:35:08.454Z,8.13
2019-06-01T00:40:15.631Z,7.70
2019-06-01T00:45:22.773Z,4.80
2019-06-01T00:50:30.855Z,17.27
2019-06-01T00:55:37.966Z,6.50
2019-06-01T01:00:47.773Z,7.50
2019-06-01T01:05:55.397Z,5.37
2019-06-01T01:11:02.686Z,5.50
2019-06-01T01:16:09.908Z,8.48
2019-06-01T01:21:17.159Z,7.67
2019-06-01T01:26:24.314Z,8.37
2019-06-01T01:31:32.259Z,6.30
2019-06-01T01:36:39.511Z,6.97
2019-06-01T01:41:47.995Z,8.90
2019-06-01T01:46:55.405Z,9.83
2019-06-01T01:52:02.666Z,8.40
2019-06-01T01:57:10.422Z,15.63
2019-06-01T02:02:17.589Z,11.33
2019-06-01T02:07:25.116Z,11.27
2019-06-01T02:12:32.971Z,14.70
2019-06-01T02:17:40.448Z,22.80
2019-06-01T02:22:48.520Z,17.90
2019-06-01T02:27:57.330Z,27.43
2019-06-01T02:33:05.703Z,18.87
2019-06-01T02:38:12.813Z,33.97
2019-06-01T02:43:20.009Z,13.97
2019-06-01T02:48:27.098Z,15.80
2019-06-01T02:53:34.190Z,24.70
2019-06-01T02:58:41.345Z,23.00
2019-06-01T03:03:48.754Z,22.37
2019-06-01T03:08:57.743Z,19.50
2019-06-01T03:14:08.813Z,86.75
2019-06-01T03:19:19.535Z,32.10
2019-06-01T03:24:27.068Z,18.03
2019-06-01T03:29:36.913Z,16.40
2019-06-01T03:34:43.955Z,35.00
2019-06-01T03:39:51.229Z,42.63
2019-06-01T03:44:58.345Z,24.73
2019-06-01T03:50:06.912Z,32.00
2019-06-01T03:55:14.273Z,26.87
2019-06-01T04:00:22.168Z,28.57
2019-06-01T04:05:29.354Z,17.63
2019-06-01T04:10:36.595Z,36.27
2019-06-01T04:15:43.694Z,36.50
2019-06-01T04:20:51.242Z,14.57
2019-06-01T04:25:58.551Z,20.97
2019-06-01T04:31:06.485Z,18.80
2019-06-01T04:36:13.814Z,20.57
2019-06-01T04:41:21.038Z,23.80
2019-06-01T04:46:28.888Z,18.57
2019-06-01T04:51:36.007Z,19.43
2019-06-01T04:56:43.245Z,20.50
2019-06-01T05:01:50.345Z,16.00
2019-06-01T05:06:57.949Z,13.77
2019-06-01T05:12:07.410Z,19.73
2019-06-01T05:17:15.398Z,13.03
2019-06-01T05:22:23.600Z,14.10
2019-06-01T05:27:30.776Z,13.43
2019-06-01T05:32:37.847Z,14.50
2019-06-01T05:37:44.962Z,12.25
2019-06-01T05:42:52.019Z,10.27
2019-06-01T05:47:59.164Z,12.77
2019-06-01T05:53:06.616Z,11.07
2019-06-01T05:58:14.980Z,10.17
2019-06-01T06:03:39.265Z,10.00
2019-06-01T06:08:32.121Z,10.93
2019-06-01T06:13:39.193Z,10.33
2019-06-01T06:18:46.414Z,10.20
2019-06-01T06:23:53.571Z,11.17
2019-06-01T06:29:00.635Z,9.67
2019-06-01T06:34:07.783Z,9.23
2019-06-01T06:39:15.839Z,10.17
2019-06-01T06:44:23.066Z,8.70
2019-06-01T06:49:30.147Z,8.47
2019-06-01T06:54:37.247Z,16.97
2019-06-01T06:59:45.749Z,8.60
2019-06-01T07:04:53.148Z,7.87
2019-06-01T07:10:01.139Z,6.67
2019-06-01T07:15:09.299Z,8.70
2019-06-01T07:20:19.529Z,7.33
2019-06-01T07:25:26.900Z,6.33
2019-06-01T07:30:49.438Z,7.07
2019-06-01T07:35:43.235Z,7.80
2019-06-01T07:40:51.735Z,7.20
2019-06-01T07:45:59.136Z,7.30
2019-06-01T07:51:06.391Z,10.20
2019-06-01T07:56:13.447Z,6.50
2019-06-01T08:01:22.766Z,6.67
2019-06-01T08:06:30.913Z,6.03
2019-06-01T08:11:38.722Z,7.22
2019-06-01T08:16:45.813Z,6.83
2019-06-01T08:21:52.903Z,7.40
2019-06-01T08:27:00.311Z,7.90
2019-06-01T08:32:07.378Z,6.40
2019-06-01T08:37:14.424Z,6.07
2019-06-01T08:42:23.442Z,8.13
2019-06-01T08:47:31.827Z,6.87
2019-06-01T08:52:39.172Z,5.90
2019-06-01T08:57:46.252Z,6.87
2019-06-01T09:02:54.259Z,7.47
2019-06-01T09:08:01.452Z,9.20
2019-06-01T09:13:09.310Z,6.30
2019-06-01T09:18:16.389Z,7.27
2019-06-01T09:23:27.670Z,8.47
2019-06-01T09:28:36.082Z,6.30
2019-06-01T09:33:43.330Z,6.47
2019-06-01T09:38:50.357Z,5.50
2019-06-01T09:43:57.434Z,6.40
2019-06-01T09:49:04.538Z,6.17
2019-06-01T09:54:11.630Z,5.80
2019-06-01T09:59:18.719Z,6.42
2019-06-01T10:04:25.780Z,8.90
2019-06-01T10:09:33.688Z,6.70
2019-06-01T10:14:40.808Z,9.37
2019-06-01T10:19:47.879Z,8.50
2019-06-01T10:24:54.991Z,9.80
2019-06-01T10:30:02.776Z,7.83
2019-06-01T10:35:10.052Z,9.97
2019-06-01T10:40:17.227Z,7.53
2019-06-01T10:45:25.408Z,6.77
2019-06-01T10:50:34.865Z,8.87
2019-06-01T10:55:42.525Z,7.67
2019-06-01T11:00:51.516Z,8.97
2019-06-01T11:05:59.442Z,6.77
2019-06-01T11:11:06.512Z,6.00
2019-06-01T11:16:13.627Z,9.38
2019-06-01T11:21:21.265Z,8.73
2019-06-01T11:26:28.328Z,9.30
2019-06-01T11:31:35.973Z,6.27
2019-06-01T11:37:01.823Z,9.13
2019-06-01T11:41:52.079Z,7.53
2019-06-01T11:46:59.130Z,7.63
2019-06-01T11:52:08.267Z,9.73
2019-06-01T11:57:15.325Z,8.70
2019-06-01T12:02:24.097Z,6.70
2019-06-01T12:07:31.666Z,10.70
2019-06-01T12:12:40.213Z,10.50
2019-06-01T12:17:47.719Z,11.43
2019-06-01T12:22:54.768Z,9.10
2019-06-01T12:28:02.147Z,9.53
2019-06-01T12:33:10.451Z,10.20
2019-06-01T12:38:17.699Z,10.90
2019-06-01T12:43:24.787Z,10.27
2019-06-01T12:48:32.417Z,9.00
2019-06-01T12:53:40.373Z,7.47
2019-06-01T12:58:48.222Z,8.58
2019-06-01T13:03:55.302Z,7.25
2019-06-01T13:09:02.267Z,8.57
2019-06-01T13:14:10.928Z,8.63
2019-06-01T13:19:18.006Z,6.95
2019-06-01T13:24:25.092Z,7.28
2019-06-01T13:29:32.103Z,6.30
2019-06-01T13:34:42.518Z,6.63
2019-06-01T13:39:54.229Z,10.00
2019-06-01T13:44:58.644Z,7.50
2019-06-01T13:50:06.990Z,7.17
2019-06-01T13:55:14.863Z,6.37
2019-06-01T14:00:30.339Z,8.27
2019-06-01T14:05:31.556Z,5.60
2019-06-01T14:10:38.903Z,5.60
2019-06-01T14:15:47.294Z,7.62
2019-06-01T14:20:56.025Z,8.77
2019-06-01T14:26:03.208Z,8.63
2019-06-01T14:31:10.197Z,5.92
2019-06-01T14:36:17.817Z,5.87
2019-06-01T14:41:25.117Z,6.00
2019-06-01T14:46:32.674Z,6.70
2019-06-01T14:51:39.767Z,5.50
2019-06-01T14:56:47.611Z,8.23
2019-06-01T15:01:56.177Z,6.43
2019-06-01T15:07:03.724Z,9.18
2019-06-01T15:12:11.066Z,7.83
2019-06-01T15:17:18.119Z,8.83
2019-06-01T15:22:25.986Z,9.83
2019-06-01T15:27:33.050Z,10.23
2019-06-01T15:32:40.222Z,6.90
2019-06-01T15:37:47.397Z,12.00
2019-06-01T15:42:55.229Z,10.40
2019-06-01T15:48:02.458Z,7.53
2019-06-01T15:53:09.998Z,10.07
2019-06-01T15:58:17.041Z,13.85
2019-06-01T16:03:24.001Z,8.35
2019-06-01T16:08:31.756Z,14.55
2019-06-01T16:13:38.852Z,14.85
2019-06-01T16:18:46.045Z,11.97
2019-06-01T16:23:54.112Z,12.85
2019-06-01T16:29:03.303Z,10.95
2019-06-01T16:34:10.858Z,9.28
2019-06-01T16:39:18.026Z,11.77
2019-06-01T16:44:25.673Z,10.00
2019-06-01T16:49:33.183Z,9.30
2019-06-01T16:54:40.208Z,9.03
2019-06-01T16:59:47.277Z,9.93
2019-06-01T17:04:54.368Z,10.85
2019-06-01T17:10:19.575Z,9.90
2019-06-01T17:15:11.221Z,8.63
2019-06-01T17:20:47.738Z,7.80
2019-06-01T17:25:54.854Z,8.00
2019-06-01T17:31:02.274Z,8.35
2019-06-01T17:36:09.580Z,7.77
2019-06-01T17:41:16.762Z,9.30
2019-06-01T17:46:23.780Z,8.90
2019-06-01T17:51:31.957Z,9.83
2019-06-01T17:56:39.160Z,8.43
2019-06-01T18:01:46.325Z,9.47
2019-06-01T18:06:53.491Z,9.60
2019-06-01T18:12:01.873Z,8.80
2019-06-01T18:17:10.337Z,10.10
2019-06-01T18:22:17.555Z,8.93
2019-06-01T18:27:24.718Z,11.87
2019-06-01T18:32:31.778Z,9.90
2019-06-01T18:37:38.804Z,9.70
2019-06-01T18:42:49.828Z,11.30
2019-06-01T18:47:57.120Z,10.57
2019-06-01T18:53:05.846Z,10.87
2019-06-01T18:58:14.669Z,11.03
2019-06-01T19:03:21.976Z,10.40
2019-06-01T19:08:29.439Z,16.40
2019-06-01T19:13:36.529Z,12.30
2019-06-01T19:18:43.568Z,16.63
2019-06-01T19:23:51.821Z,12.47
2019-06-01T19:28:59.007Z,12.50
2019-06-01T19:34:06.893Z,14.17
2019-06-01T19:39:15.201Z,19.33
2019-06-01T19:44:22.349Z,16.57
2019-06-01T19:49:29.536Z,25.93
2019-06-01T19:54:36.626Z,24.27
2019-06-01T19:59:43.802Z,24.63
2019-06-01T20:04:51.814Z,27.57
2019-06-01T20:09:59.375Z,34.57
2019-06-01T20:15:06.624Z,42.87
2019-06-01T20:20:16.955Z,54.47
2019-06-01T20:25:24.133Z,31.07
2019-06-01T20:30:31.201Z,27.93
2019-06-01T20:35:38.289Z,26.70
2019-06-01T20:40:45.530Z,33.03
2019-06-01T20:45:56.627Z,25.80
2019-06-01T20:51:01.878Z,26.37
2019-06-01T20:56:09.041Z,33.17
2019-06-01T21:01:16.154Z,27.07
2019-06-01T21:06:24.038Z,22.93
2019-06-01T21:11:31.573Z,22.23
2019-06-01T21:16:38.711Z,21.17
2019-06-01T21:21:47.035Z,21.03
2019-06-01T21:26:55.013Z,20.83
2019-06-01T21:32:02.115Z,21.33
2019-06-01T21:37:09.972Z,20.27
2019-06-01T21:42:17.431Z,23.90
2019-06-01T21:47:25.827Z,22.53
2019-06-01T21:52:32.976Z,23.33
2019-06-01T21:57:40.076Z,24.10
2019-06-01T22:02:47.491Z,22.77
2019-06-01T22:07:54.565Z,22.50
2019-06-01T22:13:17.535Z,29.37
2019-06-01T22:18:10.461Z,24.02
2019-06-01T22:23:17.934Z,18.87
2019-06-01T22:28:26.292Z,33.37
2019-06-01T22:33:34.563Z,27.83
2019-06-01T22:38:42.257Z,22.83
2019-06-01T22:43:49.304Z,20.33
2019-06-01T22:48:56.431Z,24.40
2019-06-01T22:54:05.198Z,21.57
2019-06-01T22:59:12.397Z,21.80
2019-06-01T23:04:20.854Z,19.10
2019-06-01T23:09:29.477Z,19.73
2019-06-01T23:14:36.928Z,20.60
2019-06-01T23:19:44.143Z,20.20
2019-06-01T23:24:51.340Z,20.33
2019-06-01T23:29:58.394Z,19.90
2019-06-01T23:35:06.501Z,20.83
2019-06-01T23:40:13.697Z,19.10
2019-06-01T23:45:20.773Z,19.85
2019-06-01T23:50:29.161Z,21.10
2019-06-01T23:55:36.421Z,22.63
